Time;durP1;ratioP1;P1;durP2;ratioP2;P2;SDS_P1;SDS_P2;PMS_P1;PMS_P2;Temp;Humidity;BMP_temperature;BMP_pressure;BME280_temperature;BME280_humidity;BME280_pressure;Samples;Min_cycle;Max_cycle;Signal;HPM_P1;HPM_P2
2021/03/05 00:01:17;;;;;;;9.40;8.20;;;5.10;99.90;;;;;;5053668;28;20523;-68
2021/03/05 00:03:44;;;;;;;15.00;9.63;;;5.10;99.90;;;;;;5053956;28;20496;-69
2021/03/05 00:06:12;;;;;;;14.47;9.97;;;5.00;99.90;;;;;;5053963;28;20419;-69
2021/03/05 00:08:38;;;;;;;15.80;9.30;;;5.00;99.90;;;;;;5054115;28;20460;-69
2021/03/05 00:11:05;;;;;;;12.47;9.67;;;5.00;99.90;;;;;;5053940;28;20436;-69
2021/03/05 00:13:32;;;;;;;13.53;9.50;;;5.00;99.90;;;;;;5053756;28;20467;-69
2021/03/05 00:15:59;;;;;;;11.83;8.97;;;5.00;99.90;;;;;;5053658;28;20448;-69
2021/03/05 00:18:25;;;;;;;12.97;9.53;;;5.10;99.90;;;;;;5053699;28;20444;-69
2021/03/05 00:20:54;;;;;;;13.00;8.60;;;5.10;99.90;;;;;;5053785;28;20936;-69
2021/03/05 00:23:22;;;;;;;14.60;10.37;;;5.00;99.90;;;;;;5053781;28;20500;-69
2021/03/05 00:25:49;;;;;;;20.80;11.23;;;5.00;99.90;;;;;;5053736;28;20443;-69
2021/03/05 00:28:16;;;;;;;18.53;10.97;;;5.00;99.90;;;;;;5053976;28;20458;-69
2021/03/05 00:30:43;;;;;;;13.20;9.77;;;5.00;99.90;;;;;;5053210;28;20430;-69
2021/03/05 00:33:10;;;;;;;17.40;10.00;;;5.00;99.90;;;;;;5053370;28;20478;-69
2021/03/05 00:35:37;;;;;;;14.00;10.00;;;4.90;99.90;;;;;;5053562;28;20491;-69
2021/03/05 00:38:03;;;;;;;17.40;10.70;;;4.90;99.90;;;;;;5052963;28;20508;-69
2021/03/05 00:40:31;;;;;;;18.70;11.23;;;4.90;99.90;;;;;;5053422;28;20427;-69
2021/03/05 00:42:58;;;;;;;15.37;9.00;;;4.90;99.90;;;;;;5053015;28;20443;-69
2021/03/05 00:45:25;;;;;;;15.50;10.87;;;4.90;99.90;;;;;;5052305;28;20800;-69
2021/03/05 00:47:52;;;;;;;18.50;10.60;;;4.90;99.90;;;;;;5053289;28;20463;-69
2021/03/05 00:50:20;;;;;;;14.13;9.63;;;4.90;99.90;;;;;;5053351;28;20443;-69
2021/03/05 00:52:50;;;;;;;16.60;9.93;;;4.90;99.90;;;;;;5052770;28;20475;-69
2021/03/05 00:55:16;;;;;;;13.77;10.83;;;4.90;99.90;;;;;;5053459;28;20962;-68
2021/03/05 00:57:44;;;;;;;14.10;10.00;;;4.80;99.90;;;;;;5050565;28;20474;-69
2021/03/05 01:00:13;;;;;;;16.30;10.17;;;4.80;99.90;;;;;;5054703;28;20434;-69
2021/03/05 01:02:39;;;;;;;14.07;9.53;;;4.90;99.90;;;;;;5057975;28;20443;-69
2021/03/05 01:05:07;;;;;;;17.03;11.37;;;4.80;99.90;;;;;;5053667;28;20803;-69
2021/03/05 01:07:34;;;;;;;17.00;10.20;;;4.80;99.90;;;;;;5051569;28;20423;-69
2021/03/05 01:10:01;;;;;;;15.97;10.70;;;4.80;99.90;;;;;;5052799;28;20998;-69
2021/03/05 01:12:28;;;;;;;15.27;10.50;;;4.80;99.90;;;;;;5052401;28;20475;-69
2021/03/05 01:14:55;;;;;;;20.63;10.00;;;4.80;99.90;;;;;;5052716;28;20423;-69
2021/03/05 01:17:22;;;;;;;13.70;10.40;;;4.90;99.90;;;;;;5065813;28;20441;-69
2021/03/05 01:19:49;;;;;;;15.90;10.07;;;4.90;99.90;;;;;;5072521;28;20430;-69
2021/03/05 01:22:16;;;;;;;15.50;9.67;;;4.80;99.90;;;;;;5072380;28;20425;-69
2021/03/05 01:24:42;;;;;;;15.00;10.17;;;4.80;99.90;;;;;;5072525;28;20429;-69
2021/03/05 01:27:09;;;;;;;15.00;11.00;;;4.80;99.90;;;;;;5072283;28;20423;-69
2021/03/05 01:29:36;;;;;;;16.50;11.30;;;4.80;99.90;;;;;;5072614;28;20462;-69
2021/03/05 01:32:04;;;;;;;17.87;12.20;;;4.80;99.90;;;;;;5071998;28;20831;-69
2021/03/05 01:34:31;;;;;;;16.93;10.50;;;4.80;99.90;;;;;;5070576;28;20446;-69
2021/03/05 01:36:57;;;;;;;14.83;9.93;;;4.80;99.90;;;;;;5069830;28;20442;-69
2021/03/05 01:39:24;;;;;;;16.30;11.17;;;4.80;99.90;;;;;;5059820;28;20485;-69
2021/03/05 01:41:51;;;;;;;19.60;10.60;;;4.80;99.90;;;;;;5051828;28;20496;-69
2021/03/05 01:44:18;;;;;;;13.57;10.17;;;4.80;99.90;;;;;;5052150;28;20446;-69
2021/03/05 01:46:45;;;;;;;17.27;10.50;;;4.90;99.90;;;;;;5052055;28;20440;-69
2021/03/05 01:49:12;;;;;;;15.10;10.17;;;4.80;99.90;;;;;;5052364;28;20448;-69
2021/03/05 01:51:45;;;;;;;15.83;9.83;;;4.80;99.90;;;;;;5051832;28;20477;-69
2021/03/05 01:54:12;;;;;;;18.90;11.03;;;4.90;99.90;;;;;;5051571;28;20466;-69
2021/03/05 01:56:41;;;;;;;17.10;9.30;;;4.90;99.90;;;;;;5051899;28;20446;-69
2021/03/05 01:59:09;;;;;;;14.90;9.40;;;4.80;99.90;;;;;;5051762;28;20447;-69
2021/03/05 02:01:37;;;;;;;14.73;10.23;;;4.80;99.90;;;;;;5052031;28;20978;-69
2021/03/05 02:04:07;;;;;;;16.87;9.90;;;4.70;99.90;;;;;;5051978;28;20537;-69
2021/03/05 02:06:36;;;;;;;12.83;8.97;;;4.70;99.90;;;;;;5051755;28;20447;-69
2021/03/05 02:09:04;;;;;;;13.73;9.03;;;4.60;99.90;;;;;;5051611;28;20464;-69
2021/03/05 02:11:31;;;;;;;12.53;9.60;;;4.60;99.90;;;;;;5051349;28;20446;-69
2021/03/05 02:14:00;;;;;;;14.37;9.90;;;4.60;99.90;;;;;;5052039;28;20442;-69
2021/03/05 02:16:35;;;;;;;17.53;10.30;;;4.60;99.90;;;;;;5052016;28;20527;-69
2021/03/05 02:19:19;;;;;;;19.27;8.47;;;4.60;99.90;;;;;;5051412;28;20454;-69
2021/03/05 02:22:17;;;;;;;12.53;8.97;;;4.50;99.90;;;;;;5051616;28;20497;-69
2021/03/05 02:25:17;;;;;;;13.00;9.53;;;4.50;99.90;;;;;;5041059;28;20451;-69
2021/03/05 02:28:21;;;;;;;15.20;8.70;;;4.50;99.90;;;;;;5051532;28;20458;-69
2021/03/05 02:31:12;;;;;;;12.67;8.80;;;4.40;99.90;;;;;;5051397;28;20454;-69
2021/03/05 02:33:45;;;;;;;17.53;9.67;;;4.40;99.90;;;;;;5051225;28;20542;-69
2021/03/05 02:36:18;;;;;;;12.93;8.80;;;4.40;99.90;;;;;;5051631;28;20424;-69
2021/03/05 02:38:55;;;;;;;17.30;8.70;;;4.40;99.90;;;;;;5050800;28;21187;-69
2021/03/05 02:41:23;;;;;;;16.10;8.80;;;4.40;99.90;;;;;;5050999;28;20463;-69
2021/03/05 02:43:51;;;;;;;11.73;8.77;;;4.40;99.90;;;;;;5051105;28;20521;-69
2021/03/05 02:46:21;;;;;;;16.03;8.57;;;4.40;99.90;;;;;;5050256;28;20491;-69
2021/03/05 02:48:48;;;;;;;9.50;8.20;;;4.50;99.90;;;;;;5051039;28;20443;-69
2021/03/05 02:51:18;;;;;;;14.70;10.13;;;4.50;99.90;;;;;;5051166;28;20526;-69
2021/03/05 02:53:47;;;;;;;12.50;8.70;;;4.50;99.90;;;;;;5050827;28;20473;-69
2021/03/05 02:56:17;;;;;;;16.90;9.53;;;4.50;99.90;;;;;;5051232;28;20427;-69
2021/03/05 02:58:47;;;;;;;11.13;7.87;;;4.50;99.90;;;;;;5050581;28;20471;-69
2021/03/05 03:01:15;;;;;;;15.60;8.90;;;4.50;99.90;;;;;;5051129;28;20793;-69
2021/03/05 03:03:44;;;;;;;12.20;8.10;;;4.50;99.90;;;;;;5050584;28;20435;-69
2021/03/05 03:06:11;;;;;;;13.20;8.40;;;4.50;99.90;;;;;;5049397;28;20452;-69
2021/03/05 03:08:39;;;;;;;10.50;7.77;;;4.60;99.90;;;;;;5050868;28;20439;-69
2021/03/05 03:11:07;;;;;;;12.03;9.00;;;4.60;99.90;;;;;;5050788;28;20993;-70
2021/03/05 03:13:35;;;;;;;9.87;7.10;;;4.60;99.90;;;;;;5050535;28;20474;-69
2021/03/05 03:16:03;;;;;;;11.40;7.30;;;4.50;99.90;;;;;;5050575;28;20443;-69
2021/03/05 03:18:32;;;;;;;12.83;9.00;;;4.50;99.90;;;;;;5050800;28;20449;-68
2021/03/05 03:21:00;;;;;;;13.03;7.57;;;4.60;99.90;;;;;;5050671;28;20443;-69
2021/03/05 03:23:28;;;;;;;12.50;8.03;;;4.60;99.90;;;;;;5050587;28;20431;-69
2021/03/05 03:25:54;;;;;;;13.90;9.73;;;4.60;99.90;;;;;;5050692;28;20434;-70
2021/03/05 03:28:21;;;;;;;17.07;8.57;;;4.60;99.90;;;;;;5050768;28;20504;-69
2021/03/05 03:30:48;;;;;;;14.83;8.87;;;4.50;99.90;;;;;;5051968;28;20427;-69
2021/03/05 03:33:15;;;;;;;10.80;9.03;;;4.60;99.90;;;;;;5054372;28;20506;-69
2021/03/05 03:35:42;;;;;;;13.00;7.90;;;4.60;99.90;;;;;;5054681;28;20437;-69
2021/03/05 03:38:10;;;;;;;12.40;8.10;;;4.60;99.90;;;;;;5054591;28;20443;-69
2021/03/05 03:40:38;;;;;;;13.07;8.73;;;4.60;99.90;;;;;;5054264;28;20446;-68
2021/03/05 03:43:05;;;;;;;13.20;9.13;;;4.60;99.90;;;;;;5054461;28;20426;-69
2021/03/05 03:45:33;;;;;;;13.13;9.90;;;4.50;99.90;;;;;;5054334;28;20431;-69
2021/03/05 03:48:02;;;;;;;16.47;9.40;;;4.50;99.90;;;;;;5054515;28;20850;-69
2021/03/05 03:50:31;;;;;;;22.63;10.40;;;4.50;99.90;;;;;;5054634;28;20428;-69
2021/03/05 03:53:00;;;;;;;13.23;9.57;;;4.50;99.90;;;;;;5054378;28;20466;-69
2021/03/05 03:55:28;;;;;;;12.53;8.70;;;4.50;99.90;;;;;;5054355;28;20509;-69
2021/03/05 03:57:56;;;;;;;17.07;8.43;;;4.50;99.90;;;;;;5054400;28;20458;-69
2021/03/05 04:00:23;;;;;;;14.50;9.17;;;4.40;99.90;;;;;;5053939;28;20437;-69
2021/03/05 04:02:51;;;;;;;13.90;8.63;;;4.40;99.90;;;;;;5054357;28;20438;-69
2021/03/05 04:05:23;;;;;;;11.03;8.30;;;4.40;99.90;;;;;;5054324;28;20796;-69
2021/03/05 04:07:51;;;;;;;12.40;7.70;;;4.30;99.90;;;;;;5053349;28;20470;-68
2021/03/05 04:10:19;;;;;;;11.30;8.10;;;4.30;99.90;;;;;;5054251;28;20431;-69
2021/03/05 04:12:48;;;;;;;13.60;9.70;;;4.30;99.90;;;;;;5054158;28;20478;-69
2021/03/05 04:15:16;;;;;;;15.77;8.40;;;4.20;99.90;;;;;;5054403;28;20443;-69
2021/03/05 04:17:43;;;;;;;9.03;7.10;;;4.20;99.90;;;;;;5053720;28;20449;-69
2021/03/05 04:20:13;;;;;;;7.73;6.07;;;4.10;99.90;;;;;;5053890;28;20438;-69
2021/03/05 04:22:40;;;;;;;10.53;6.80;;;4.00;99.90;;;;;;5054142;28;20438;-69
2021/03/05 04:25:09;;;;;;;7.97;6.47;;;4.00;99.90;;;;;;5055287;28;20449;-69
2021/03/05 04:27:36;;;;;;;7.50;6.10;;;4.00;99.90;;;;;;5054290;28;20480;-69
2021/03/05 04:30:05;;;;;;;9.50;6.80;;;4.00;99.90;;;;;;5054164;28;20439;-69
2021/03/05 04:32:31;;;;;;;12.73;5.70;;;4.00;99.90;;;;;;5053085;28;20466;-69
2021/03/05 04:34:58;;;;;;;15.83;6.40;;;4.00;99.90;;;;;;5053820;28;20477;-69
2021/03/05 04:37:25;;;;;;;8.53;5.77;;;4.00;99.90;;;;;;5053803;28;20430;-69
2021/03/05 04:39:51;;;;;;;10.13;6.43;;;4.00;99.90;;;;;;5053643;28;21008;-69
2021/03/05 04:42:18;;;;;;;5.63;5.03;;;3.90;99.90;;;;;;5053479;28;20797;-69
2021/03/05 04:44:45;;;;;;;7.33;4.80;;;3.90;99.90;;;;;;5053836;28;20444;-69
2021/03/05 04:47:12;;;;;;;8.17;5.87;;;3.90;99.90;;;;;;5052899;28;20454;-69
2021/03/05 04:49:39;;;;;;;6.97;4.70;;;3.90;99.90;;;;;;5052825;28;20835;-69
2021/03/05 04:52:09;;;;;;;5.60;4.20;;;3.80;99.90;;;;;;5053075;28;20477;-69
2021/03/05 04:54:35;;;;;;;7.10;4.50;;;3.80;99.90;;;;;;5053930;28;20423;-69
2021/03/05 04:57:03;;;;;;;7.40;4.20;;;3.80;99.90;;;;;;5053257;28;20800;-69
2021/03/05 04:59:30;;;;;;;7.63;5.17;;;3.90;99.90;;;;;;5053123;28;20451;-69
2021/03/05 05:01:56;;;;;;;7.30;4.20;;;3.80;99.90;;;;;;5052614;28;20424;-69
2021/03/05 05:04:24;;;;;;;4.90;4.40;;;3.80;99.90;;;;;;5052982;28;20443;-70
2021/03/05 05:06:50;;;;;;;7.00;4.33;;;3.80;99.90;;;;;;5053128;28;20431;-69
2021/03/05 05:09:18;;;;;;;6.10;4.77;;;3.70;99.90;;;;;;5052843;28;20446;-69
2021/03/05 05:11:44;;;;;;;6.03;4.43;;;3.80;99.90;;;;;;5052778;28;20525;-70
2021/03/05 05:14:11;;;;;;;5.80;4.97;;;3.70;99.90;;;;;;5052788;28;20427;-69
2021/03/05 05:16:38;;;;;;;6.23;4.70;;;3.70;99.90;;;;;;5051974;28;20455;-69
2021/03/05 05:19:04;;;;;;;7.33;5.27;;;3.80;99.90;;;;;;5052581;28;20447;-69
2021/03/05 05:21:32;;;;;;;5.33;4.83;;;3.80;99.90;;;;;;5053101;28;20808;-69
2021/03/05 05:23:59;;;;;;;7.97;6.17;;;3.80;99.90;;;;;;5052717;28;20438;-69
2021/03/05 05:26:26;;;;;;;6.53;4.80;;;3.80;99.90;;;;;;5052742;28;20439;-69
2021/03/05 05:28:53;;;;;;;10.23;6.77;;;3.90;99.90;;;;;;5052733;28;20684;-69
2021/03/05 05:31:19;;;;;;;10.00;5.43;;;3.90;99.90;;;;;;5052287;28;20503;-68
2021/03/05 05:33:49;;;;;;;10.00;6.30;;;3.90;99.90;;;;;;5053184;28;20471;-69
2021/03/05 05:36:15;;;;;;;9.97;6.07;;;3.90;99.90;;;;;;5052980;28;20434;-70
2021/03/05 05:38:43;;;;;;;9.90;5.67;;;3.90;99.90;;;;;;5052776;28;20458;-70
2021/03/05 05:41:09;;;;;;;8.77;6.00;;;3.90;99.90;;;;;;5052508;28;20439;-69
2021/03/05 05:43:36;;;;;;;8.20;5.73;;;3.80;99.90;;;;;;5053247;28;20430;-69
2021/03/05 05:46:04;;;;;;;7.83;6.03;;;3.80;99.90;;;;;;5052139;28;20444;-69
2021/03/05 05:48:34;;;;;;;10.10;5.60;;;3.80;99.90;;;;;;5052534;28;20845;-69
2021/03/05 05:51:02;;;;;;;7.30;5.63;;;3.80;99.90;;;;;;5053272;28;20435;-69
2021/03/05 05:53:35;;;;;;;10.00;6.63;;;3.80;99.90;;;;;;5051157;28;21125;-69
2021/03/05 05:56:02;;;;;;;7.23;6.07;;;3.90;99.90;;;;;;5052612;28;20867;-69
2021/03/05 05:58:29;;;;;;;7.73;5.67;;;3.90;99.90;;;;;;5051953;28;20463;-69
2021/03/05 06:00:57;;;;;;;8.47;5.57;;;3.90;99.90;;;;;;5051777;28;20936;-69
2021/03/05 06:03:29;;;;;;;11.20;6.70;;;3.90;99.90;;;;;;5052059;28;20447;-69
2021/03/05 06:05:56;;;;;;;10.77;6.53;;;3.90;99.90;;;;;;5052142;28;20977;-69
2021/03/05 06:08:23;;;;;;;10.50;6.60;;;3.90;99.90;;;;;;5051558;28;20516;-67
2021/03/05 06:10:52;;;;;;;9.47;6.10;;;4.00;99.90;;;;;;5051571;28;20465;-67
2021/03/05 06:13:20;;;;;;;8.60;5.90;;;4.10;99.90;;;;;;5051267;28;20479;-67
2021/03/05 06:16:11;;;;;;;10.77;7.27;;;4.20;99.90;;;;;;5051078;28;20443;-67
2021/03/05 06:18:38;;;;;;;13.60;7.97;;;4.30;99.90;;;;;;5051320;28;20439;-67
2021/03/05 06:21:05;;;;;;;14.30;9.17;;;4.30;99.90;;;;;;5051291;28;20439;-67
2021/03/05 06:23:34;;;;;;;13.77;8.70;;;4.30;99.90;;;;;;5051515;28;20439;-67
2021/03/05 06:26:01;;;;;;;11.97;7.73;;;4.20;99.90;;;;;;5051613;28;20423;-67
2021/03/05 06:28:29;;;;;;;16.10;8.73;;;4.00;99.90;;;;;;5051371;28;20804;-67
2021/03/05 06:30:56;;;;;;;13.03;8.53;;;3.90;99.90;;;;;;5051105;28;20423;-68
2021/03/05 06:33:30;;;;;;;16.10;9.77;;;3.90;99.90;;;;;;5051031;28;20489;-68
2021/03/05 06:36:15;;;;;;;15.27;9.13;;;3.90;99.90;;;;;;5051255;28;20434;-68
2021/03/05 06:38:43;;;;;;;11.70;8.40;;;3.80;99.90;;;;;;5051322;28;20442;-67
2021/03/05 06:41:21;;;;;;;21.27;13.00;;;3.80;99.90;;;;;;5050918;28;20458;-66
2021/03/05 06:43:50;;;;;;;14.50;10.20;;;3.90;99.90;;;;;;5051186;28;20435;-68
2021/03/05 06:46:31;;;;;;;15.90;10.37;;;3.90;99.90;;;;;;5050246;28;20812;-67
2021/03/05 06:48:59;;;;;;;17.13;9.63;;;3.80;99.90;;;;;;5051017;28;20447;-67
2021/03/05 06:51:26;;;;;;;13.63;8.57;;;3.80;99.90;;;;;;5050738;28;20451;-68
2021/03/05 06:54:07;;;;;;;14.57;9.53;;;3.70;99.90;;;;;;5050825;28;20497;-68
2021/03/05 06:56:35;;;;;;;11.80;8.10;;;3.70;99.90;;;;;;5051054;28;20451;-67
2021/03/05 06:59:05;;;;;;;14.73;8.87;;;3.70;99.90;;;;;;5050758;28;20446;-68
2021/03/05 07:01:31;;;;;;;13.50;8.60;;;3.60;99.90;;;;;;5050453;28;20457;-68
2021/03/05 07:04:06;;;;;;;16.77;10.20;;;3.50;99.90;;;;;;5050807;28;20438;-67
2021/03/05 07:06:33;;;;;;;14.03;8.90;;;3.40;99.90;;;;;;5050027;28;20446;-68
2021/03/05 07:08:59;;;;;;;17.30;10.17;;;3.40;99.90;;;;;;5050791;28;21274;-67
2021/03/05 07:11:35;;;;;;;14.60;10.13;;;3.40;99.90;;;;;;5050570;28;20442;-67
2021/03/05 07:14:04;;;;;;;14.27;9.13;;;3.40;99.90;;;;;;5050691;28;20472;-68
2021/03/05 07:16:45;;;;;;;13.67;8.73;;;3.30;99.90;;;;;;5050495;28;20446;-67
2021/03/05 07:19:14;;;;;;;16.53;11.33;;;3.30;99.90;;;;;;5050084;28;20474;-68
2021/03/05 07:21:43;;;;;;;21.40;7.93;;;3.20;99.90;;;;;;5049972;28;20477;-67
2021/03/05 07:24:12;;;;;;;13.97;8.80;;;3.10;99.90;;;;;;5050707;28;20427;-69
2021/03/05 07:26:53;;;;;;;15.83;9.20;;;3.00;99.90;;;;;;5050659;28;20427;-69
2021/03/05 07:29:23;;;;;;;15.97;9.07;;;3.00;99.90;;;;;;5050569;28;20451;-69
2021/03/05 07:31:58;;;;;;;16.23;8.70;;;2.90;99.90;;;;;;5050439;28;20469;-68
2021/03/05 07:34:30;;;;;;;13.60;8.63;;;2.90;99.90;;;;;;5050850;28;20972;-68
2021/03/05 07:37:01;;;;;;;13.47;8.53;;;2.90;99.90;;;;;;5050423;28;20437;-69
2021/03/05 07:39:31;;;;;;;16.90;8.97;;;3.00;99.90;;;;;;5050419;28;20435;-68
2021/03/05 07:41:58;;;;;;;12.73;8.63;;;3.00;99.90;;;;;;5050025;28;20446;-68
2021/03/05 07:44:27;;;;;;;13.07;7.90;;;2.90;99.90;;;;;;5050365;28;20423;-69
2021/03/05 07:46:54;;;;;;;13.10;8.20;;;2.90;99.90;;;;;;5049931;28;20450;-68
2021/03/05 07:49:28;;;;;;;14.00;7.90;;;2.90;99.90;;;;;;5050325;28;20438;-68
2021/03/05 07:51:56;;;;;;;13.33;8.53;;;2.90;99.90;;;;;;5050181;28;20419;-69
2021/03/05 07:54:42;;;;;;;15.10;9.40;;;2.90;99.90;;;;;;5050348;28;20529;-69
2021/03/05 07:57:44;;;;;;;15.57;8.70;;;2.90;99.90;;;;;;5050193;28;20431;-70
2021/03/05 08:00:16;;;;;;;12.63;9.03;;;2.80;99.90;;;;;;5050730;28;20955;-70
2021/03/05 08:02:57;;;;;;;16.80;9.50;;;2.80;99.90;;;;;;5049866;28;20431;-68
2021/03/05 08:05:38;;;;;;;16.83;10.00;;;2.80;99.90;;;;;;5049354;28;20438;-68
2021/03/05 08:08:16;;;;;;;19.03;11.20;;;2.90;99.90;;;;;;5050022;28;20576;-69
2021/03/05 08:10:45;;;;;;;15.37;9.20;;;2.90;99.90;;;;;;5050356;28;20483;-68
2021/03/05 08:13:50;;;;;;;17.10;9.60;;;3.00;99.90;;;;;;5049694;28;20470;-68
2021/03/05 08:16:39;;;;;;;13.93;9.30;;;3.10;99.90;;;;;;5051073;28;20902;-68
2021/03/05 08:19:48;;;;;;;15.60;9.00;;;3.10;99.90;;;;;;5053908;28;20470;-69
2021/03/05 08:22:21;;;;;;;17.67;10.03;;;3.10;99.90;;;;;;5053512;28;20435;-69
2021/03/05 08:24:48;;;;;;;13.53;8.20;;;3.10;99.90;;;;;;5053788;28;20830;-68
2021/03/05 08:27:36;;;;;;;15.10;9.77;;;3.20;99.90;;;;;;5053525;28;20522;-68
2021/03/05 08:30:08;;;;;;;15.47;8.97;;;3.10;99.90;;;;;;5053806;28;20514;-68
2021/03/05 08:32:50;;;;;;;13.80;8.90;;;3.10;99.90;;;;;;5053283;28;20472;-67
2021/03/05 08:35:17;;;;;;;14.77;9.57;;;3.00;99.90;;;;;;5053567;28;20446;-67
2021/03/05 08:37:46;;;;;;;11.93;8.20;;;3.00;99.90;;;;;;5053348;28;20472;-67
2021/03/05 08:40:30;;;;;;;12.63;7.60;;;3.00;99.90;;;;;;5053381;28;20443;-68
2021/03/05 08:42:57;;;;;;;15.93;9.80;;;2.90;99.90;;;;;;5053059;28;20446;-67
2021/03/05 08:45:27;;;;;;;13.07;7.80;;;2.90;99.90;;;;;;5053448;28;20848;-67
2021/03/05 08:47:56;;;;;;;15.73;11.60;;;3.00;99.90;;;;;;5052843;28;20459;-68
2021/03/05 08:50:27;;;;;;;10.57;7.03;;;2.90;99.90;;;;;;5052974;28;20904;-69
2021/03/05 08:52:54;;;;;;;11.93;7.33;;;2.90;99.90;;;;;;5052960;28;20550;-69
2021/03/05 08:55:33;;;;;;;9.93;6.53;;;2.90;99.90;;;;;;5053409;28;20442;-68
2021/03/05 08:58:01;;;;;;;11.40;7.50;;;2.90;99.90;;;;;;5052561;28;20517;-69
2021/03/05 09:00:31;;;;;;;10.17;7.07;;;2.80;99.90;;;;;;5052490;28;20431;-68
2021/03/05 09:03:06;;;;;;;11.73;7.33;;;2.80;99.90;;;;;;5053204;28;20435;-68
2021/03/05 09:05:34;;;;;;;10.83;6.60;;;2.80;99.90;;;;;;5053066;28;20796;-68
2021/03/05 09:08:02;;;;;;;9.57;6.80;;;2.80;99.90;;;;;;5051570;28;20458;-70
2021/03/05 09:10:41;;;;;;;6.30;5.10;;;2.90;99.90;;;;;;5052776;28;20434;-68
2021/03/05 09:13:09;;;;;;;6.97;4.67;;;2.90;99.90;;;;;;5052669;28;20462;-68
2021/03/05 09:15:43;;;;;;;9.00;5.63;;;2.90;99.90;;;;;;5052862;28;20912;-68
2021/03/05 09:18:13;;;;;;;11.53;7.00;;;2.80;99.90;;;;;;5051769;28;20894;-69
2021/03/05 09:20:45;;;;;;;7.33;5.63;;;2.80;99.90;;;;;;5052782;28;20956;-68
2021/03/05 09:23:23;;;;;;;8.63;5.50;;;2.80;99.90;;;;;;5052256;28;20441;-69
2021/03/05 09:25:51;;;;;;;8.60;5.57;;;2.80;99.90;;;;;;5052512;28;20442;-69
2021/03/05 09:28:19;;;;;;;6.67;4.90;;;2.80;99.90;;;;;;5049966;28;20473;-67
2021/03/05 09:30:56;;;;;;;8.10;6.07;;;2.80;99.90;;;;;;5052573;28;20426;-69
2021/03/05 09:33:31;;;;;;;8.60;5.97;;;2.80;99.90;;;;;;5052151;28;20481;-68
2021/03/05 09:36:00;;;;;;;9.80;6.67;;;2.80;99.90;;;;;;5052327;28;20427;-68
2021/03/05 09:38:30;;;;;;;14.07;7.60;;;2.70;99.90;;;;;;5051856;28;20978;-68
2021/03/05 09:41:10;;;;;;;13.60;8.83;;;2.80;99.90;;;;;;5051962;28;20435;-68
2021/03/05 09:43:37;;;;;;;8.77;6.00;;;2.70;99.90;;;;;;5052080;28;20456;-69
2021/03/05 09:46:17;;;;;;;12.70;7.87;;;2.60;99.90;;;;;;5052160;28;20427;-67
2021/03/05 09:48:44;;;;;;;8.63;5.60;;;2.70;99.90;;;;;;5051912;28;20466;-68
2021/03/05 09:51:12;;;;;;;9.60;6.63;;;2.70;99.90;;;;;;5046692;28;20470;-69
2021/03/05 09:53:47;;;;;;;7.77;5.33;;;2.70;99.90;;;;;;5065297;28;20552;-68
2021/03/05 09:56:14;;;;;;;10.90;6.90;;;2.80;99.90;;;;;;5069515;28;20449;-68
2021/03/05 09:58:52;;;;;;;6.63;5.50;;;2.90;99.90;;;;;;5051693;28;20443;-67
2021/03/05 10:01:19;;;;;;;10.67;7.70;;;2.80;99.90;;;;;;5051685;28;20427;-68
2021/03/05 10:03:52;;;;;;;8.30;5.40;;;2.80;99.90;;;;;;5051369;28;20481;-67
2021/03/05 10:06:19;;;;;;;7.63;4.27;;;2.80;99.90;;;;;;5052082;28;20443;-67
2021/03/05 10:08:46;;;;;;;9.10;5.57;;;2.80;99.90;;;;;;5055967;28;20499;-68
2021/03/05 10:11:13;;;;;;;6.53;5.17;;;2.80;99.90;;;;;;5071437;28;20499;-68
2021/03/05 10:13:53;;;;;;;5.37;4.40;;;2.80;99.90;;;;;;5071136;28;20818;-67
2021/03/05 10:16:23;;;;;;;7.07;5.30;;;2.80;99.90;;;;;;5071180;28;20434;-67
2021/03/05 10:18:53;;;;;;;6.77;4.77;;;2.80;99.90;;;;;;5056838;28;20480;-67
2021/03/05 10:21:22;;;;;;;5.27;4.47;;;2.80;99.90;;;;;;5051189;28;20439;-68
2021/03/05 10:23:49;;;;;;;9.03;6.10;;;2.80;99.90;;;;;;5050946;28;20963;-67
2021/03/05 10:26:18;;;;;;;7.07;4.97;;;2.90;99.90;;;;;;5051188;28;20450;-68
2021/03/05 10:28:46;;;;;;;3.90;2.73;;;2.90;99.90;;;;;;5050983;28;20478;-68
2021/03/05 10:31:13;;;;;;;5.93;3.67;;;2.90;99.90;;;;;;5051007;28;20427;-68
2021/03/05 10:33:41;;;;;;;5.03;3.23;;;2.90;99.90;;;;;;5051095;28;20847;-67
2021/03/05 10:36:10;;;;;;;5.57;3.50;;;2.90;99.90;;;;;;5050946;28;20442;-68
2021/03/05 10:38:38;;;;;;;4.53;3.23;;;2.90;99.90;;;;;;5050971;28;20797;-68
2021/03/05 10:41:06;;;;;;;7.30;4.30;;;2.90;99.90;;;;;;5050490;28;21048;-68
2021/03/05 10:43:34;;;;;;;7.20;4.63;;;2.80;99.90;;;;;;5050641;28;20439;-68
2021/03/05 10:46:01;;;;;;;7.53;4.57;;;2.70;99.90;;;;;;5061999;28;20491;-67
2021/03/05 10:48:28;;;;;;;9.10;4.53;;;2.60;99.90;;;;;;5059562;28;20458;-68
2021/03/05 10:50:55;;;;;;;9.93;4.40;;;2.60;99.90;;;;;;5050830;28;20787;-68
2021/03/05 10:53:22;;;;;;;9.83;4.97;;;2.60;99.90;;;;;;5050225;28;20478;-68
2021/03/05 10:55:50;;;;;;;9.33;5.67;;;2.60;99.90;;;;;;5050519;28;20435;-68
2021/03/05 10:58:18;;;;;;;6.83;5.20;;;2.60;99.90;;;;;;5050602;28;20469;-68
2021/03/05 11:00:45;;;;;;;9.97;5.70;;;2.50;99.90;;;;;;5050783;28;20430;-68
2021/03/05 11:03:12;;;;;;;11.30;6.10;;;2.60;99.90;;;;;;5050306;28;20446;-68
2021/03/05 11:05:38;;;;;;;10.80;6.40;;;2.50;99.90;;;;;;5050736;28;20423;-68
2021/03/05 11:08:06;;;;;;;9.00;4.97;;;2.50;99.90;;;;;;5050367;28;20453;-68
2021/03/05 11:10:33;;;;;;;10.07;6.20;;;2.60;99.90;;;;;;5050272;28;20439;-68
2021/03/05 11:13:00;;;;;;;13.73;7.80;;;2.70;99.90;;;;;;5050297;28;20482;-67
2021/03/05 11:15:27;;;;;;;12.80;8.30;;;2.80;99.90;;;;;;5049731;28;20446;-67
2021/03/05 11:17:53;;;;;;;11.10;7.03;;;2.80;99.90;;;;;;5048810;28;20466;-67
2021/03/05 11:20:20;;;;;;;11.13;6.97;;;2.80;99.90;;;;;;5049187;28;20430;-67
2021/03/05 11:22:47;;;;;;;11.40;7.03;;;2.90;99.90;;;;;;5049354;28;20443;-68
2021/03/05 11:25:17;;;;;;;15.60;8.67;;;2.80;99.90;;;;;;5049078;28;20433;-68
2021/03/05 11:27:45;;;;;;;25.43;13.53;;;2.80;99.90;;;;;;5049445;28;21122;-69
2021/03/05 11:30:13;;;;;;;10.50;6.60;;;2.90;99.90;;;;;;5046833;28;20435;-67
2021/03/05 11:32:39;;;;;;;12.10;7.43;;;2.80;99.90;;;;;;5049146;28;20991;-68
2021/03/05 11:35:07;;;;;;;11.57;6.27;;;2.80;99.90;;;;;;5048826;28;20427;-66
2021/03/05 11:37:34;;;;;;;11.00;6.50;;;2.80;99.90;;;;;;5049077;28;20500;-68
2021/03/05 11:40:00;;;;;;;10.90;5.57;;;2.80;99.90;;;;;;5049186;28;20427;-67
2021/03/05 11:42:27;;;;;;;11.33;6.57;;;2.80;99.90;;;;;;5046675;28;20434;-70
2021/03/05 11:44:54;;;;;;;14.00;6.17;;;2.80;99.90;;;;;;5049166;28;20426;-69
2021/03/05 11:47:21;;;;;;;6.83;5.37;;;2.90;99.90;;;;;;5049239;28;20430;-68
2021/03/05 11:49:48;;;;;;;11.80;6.40;;;2.90;99.90;;;;;;5049051;28;20816;-69
2021/03/05 11:52:15;;;;;;;9.37;5.97;;;3.00;99.90;;;;;;5051511;28;20442;-68
2021/03/05 11:54:41;;;;;;;9.97;5.67;;;3.00;99.90;;;;;;5052824;28;20983;-68
2021/03/05 11:57:08;;;;;;;8.40;5.47;;;2.90;99.90;;;;;;5053157;28;20423;-70
2021/03/05 11:59:35;;;;;;;7.70;4.97;;;3.00;99.90;;;;;;5052835;28;20463;-68
2021/03/05 12:02:02;;;;;;;8.50;4.80;;;3.00;99.90;;;;;;5052612;28;20920;-67
2021/03/05 12:04:29;;;;;;;12.67;6.07;;;3.10;99.90;;;;;;5052665;28;20435;-69
2021/03/05 12:06:55;;;;;;;11.30;6.73;;;3.10;99.90;;;;;;5052691;28;20425;-67
2021/03/05 12:09:22;;;;;;;10.07;6.50;;;3.20;99.90;;;;;;5052638;28;20528;-68
2021/03/05 12:11:49;;;;;;;9.33;5.20;;;3.30;99.90;;;;;;5050288;28;20472;-67
2021/03/05 12:14:15;;;;;;;9.70;5.80;;;3.20;99.90;;;;;;5052727;28;20489;-67
2021/03/05 12:16:42;;;;;;;12.53;5.80;;;3.20;99.90;;;;;;5053012;28;20427;-68
2021/03/05 12:19:12;;;;;;;9.97;5.80;;;3.20;99.90;;;;;;5050034;28;20540;-68
2021/03/05 12:21:45;;;;;;;9.17;5.63;;;3.20;99.90;;;;;;5051797;28;20445;-67
2021/03/05 12:24:12;;;;;;;13.97;5.00;;;3.20;99.90;;;;;;5052253;28;20427;-67
2021/03/05 12:26:38;;;;;;;10.47;5.03;;;3.30;99.90;;;;;;5052455;28;20437;-68
2021/03/05 12:29:05;;;;;;;7.10;4.80;;;3.30;99.90;;;;;;5052264;28;20545;-67
2021/03/05 12:31:32;;;;;;;7.87;5.03;;;3.40;99.90;;;;;;5052230;28;20430;-67
2021/03/05 12:34:01;;;;;;;9.30;4.73;;;3.40;99.90;;;;;;5053072;28;20474;-68
2021/03/05 12:36:29;;;;;;;17.60;6.20;;;3.30;99.90;;;;;;5053486;28;20441;-68
2021/03/05 12:39:05;;;;;;;10.23;5.70;;;3.40;99.90;;;;;;5051844;28;20439;-68
2021/03/05 12:41:37;;;;;;;7.83;4.97;;;3.40;99.90;;;;;;5050196;28;20446;-67
2021/03/05 12:44:07;;;;;;;10.00;5.77;;;3.40;99.90;;;;;;5053122;28;20431;-67
2021/03/05 12:46:35;;;;;;;8.63;5.30;;;3.40;99.90;;;;;;5053220;28;20427;-67
2021/03/05 12:49:04;;;;;;;7.13;4.90;;;3.40;99.90;;;;;;5051994;28;20504;-68
2021/03/05 12:51:41;;;;;;;10.00;5.83;;;3.40;99.90;;;;;;5049224;28;20577;-67
2021/03/05 12:54:09;;;;;;;11.00;6.20;;;3.50;99.90;;;;;;5051687;28;20497;-70
2021/03/05 12:56:41;;;;;;;9.80;6.33;;;3.50;99.90;;;;;;5052042;28;20434;-67
2021/03/05 12:59:11;;;;;;;9.37;6.03;;;3.50;99.90;;;;;;5051911;28;20463;-69
2021/03/05 13:01:43;;;;;;;7.67;5.10;;;3.50;99.90;;;;;;5053014;28;20442;-67